createdAt,value
2018-05-26T00:01:29.781Z,14.80
2018-05-26T00:03:56.763Z,14.80
2018-05-26T00:06:24.523Z,14.60
2018-05-26T00:08:51.493Z,14.60
2018-05-26T00:11:18.485Z,14.40
2018-05-26T00:13:45.470Z,14.30
2018-05-26T00:16:13.226Z,14.10
2018-05-26T00:18:40.982Z,13.90
2018-05-26T00:21:07.966Z,13.90
2018-05-26T00:23:34.965Z,13.90
2018-05-26T00:26:02.734Z,13.90
2018-05-26T00:28:29.716Z,13.80
2018-05-26T00:30:56.705Z,13.90
2018-05-26T00:33:23.686Z,14.00
2018-05-26T00:35:51.441Z,13.90
2018-05-26T00:38:18.426Z,13.90
2018-05-26T00:40:45.419Z,14.00
2018-05-26T00:43:12.399Z,14.00
2018-05-26T00:45:40.154Z,14.00
2018-05-26T00:48:07.905Z,14.00
2018-05-26T00:50:34.874Z,14.00
2018-05-26T00:53:02.635Z,14.00
2018-05-26T00:55:30.410Z,13.80
2018-05-26T00:57:58.149Z,13.80
2018-05-26T01:00:25.134Z,13.80
2018-05-26T01:02:52.118Z,13.80
2018-05-26T01:05:19.101Z,13.80
2018-05-26T01:07:46.850Z,13.40
2018-05-26T01:10:13.834Z,13.40
2018-05-26T01:12:40.830Z,13.30
2018-05-26T01:15:07.810Z,13.20
2018-05-26T01:17:35.563Z,13.30
2018-05-26T01:20:03.309Z,13.40
2018-05-26T01:22:30.297Z,13.40
2018-05-26T01:24:57.290Z,13.40
2018-05-26T01:27:24.278Z,13.40
2018-05-26T01:29:52.022Z,13.40
2018-05-26T01:32:19.018Z,13.40
2018-05-26T01:34:45.989Z,13.40
2018-05-26T01:37:12.969Z,13.50
2018-05-26T01:39:40.718Z,13.50
2018-05-26T01:42:07.701Z,13.50
2018-05-26T01:44:34.682Z,13.60
2018-05-26T01:47:01.677Z,13.60
2018-05-26T01:49:29.409Z,13.60
2018-05-26T01:51:56.398Z,13.60
2018-05-26T01:54:23.394Z,13.70
2018-05-26T01:56:50.387Z,13.70
2018-05-26T01:59:18.129Z,13.60
2018-05-26T02:01:45.150Z,13.60
2018-05-26T02:04:12.126Z,13.40
2018-05-26T02:06:39.869Z,13.10
2018-05-26T02:09:06.862Z,13.10
2018-05-26T02:11:34.602Z,12.90
2018-05-26T02:14:02.349Z,13.00
2018-05-26T02:16:29.331Z,13.00
2018-05-26T02:18:56.322Z,13.10
2018-05-26T02:21:23.306Z,13.10
2018-05-26T02:23:51.058Z,13.20
2018-05-26T02:26:18.037Z,13.20
2018-05-26T02:28:45.029Z,13.30
2018-05-26T02:31:12.000Z,13.30
2018-05-26T02:33:38.985Z,13.10
2018-05-26T02:36:05.974Z,12.90
2018-05-26T02:38:32.962Z,12.80
2018-05-26T02:41:00.701Z,12.90
2018-05-26T02:43:27.696Z,12.80
2018-05-26T02:45:54.678Z,12.80
2018-05-26T02:48:21.658Z,12.80
2018-05-26T02:50:49.402Z,12.70
2018-05-26T02:53:16.391Z,12.70
2018-05-26T02:55:43.378Z,12.80
2018-05-26T02:58:10.354Z,12.80
2018-05-26T03:00:38.110Z,12.80
2018-05-26T03:03:05.091Z,12.80
2018-05-26T03:05:37.776Z,12.80
2018-05-26T03:08:10.603Z,12.70
2018-05-26T03:10:43.374Z,12.60
2018-05-26T03:13:16.201Z,12.50
2018-05-26T03:15:59.736Z,12.20
2018-05-26T03:18:27.495Z,12.10
2018-05-26T03:20:55.237Z,12.10
2018-05-26T03:23:22.222Z,12.10
2018-05-26T03:25:49.214Z,12.10
2018-05-26T03:28:16.198Z,12.10
2018-05-26T03:30:43.947Z,12.30
2018-05-26T03:33:10.921Z,12.30
2018-05-26T03:35:37.914Z,12.40
2018-05-26T03:38:04.889Z,12.40
2018-05-26T03:40:32.654Z,12.60
2018-05-26T03:42:59.631Z,12.50
2018-05-26T03:45:26.617Z,12.60
2018-05-26T03:47:53.598Z,12.60
2018-05-26T03:50:21.349Z,12.70
2018-05-26T03:52:48.334Z,12.70
2018-05-26T03:55:30.206Z,12.70
2018-05-26T03:58:03.817Z,12.80
2018-05-26T04:00:31.606Z,12.90
2018-05-26T04:02:58.603Z,12.90
2018-05-26T04:05:25.577Z,13.00
2018-05-26T04:07:52.571Z,13.00
2018-05-26T04:10:19.557Z,13.10
2018-05-26T04:12:47.306Z,13.20
2018-05-26T04:15:14.300Z,13.20
2018-05-26T04:17:41.272Z,13.30
2018-05-26T04:20:08.258Z,13.40
2018-05-26T04:22:36.005Z,13.60
2018-05-26T04:25:02.994Z,13.50
2018-05-26T04:27:29.980Z,13.50
2018-05-26T04:29:56.987Z,13.60
2018-05-26T04:32:23.994Z,13.60
2018-05-26T04:34:50.983Z,13.60
2018-05-26T04:37:17.970Z,13.50
2018-05-26T04:39:44.958Z,13.60
2018-05-26T04:42:11.933Z,13.60
2018-05-26T04:44:38.921Z,13.70
2018-05-26T04:47:05.901Z,13.70
2018-05-26T04:49:32.901Z,13.80
2018-05-26T04:51:59.889Z,13.80
2018-05-26T04:54:26.886Z,13.80
2018-05-26T04:56:53.870Z,13.90
2018-05-26T04:59:21.621Z,13.90
2018-05-26T05:01:48.614Z,13.80
2018-05-26T05:04:15.598Z,13.90
2018-05-26T05:06:42.588Z,14.00
2018-05-26T05:09:10.331Z,14.30
2018-05-26T05:11:38.090Z,14.50
2018-05-26T05:14:05.071Z,14.40
2018-05-26T05:16:32.055Z,14.60
2018-05-26T05:18:59.038Z,14.90
2018-05-26T05:21:26.797Z,15.50
2018-05-26T05:23:53.765Z,15.50
2018-05-26T05:26:20.758Z,15.70
2018-05-26T05:28:47.750Z,15.90
2018-05-26T05:31:15.502Z,16.30
2018-05-26T05:33:43.253Z,16.40
2018-05-26T05:36:10.239Z,16.40
2018-05-26T05:38:37.218Z,16.50
2018-05-26T05:41:04.209Z,16.60
2018-05-26T05:43:31.958Z,16.70
2018-05-26T05:45:58.953Z,16.70
2018-05-26T05:48:25.927Z,16.90
2018-05-26T05:50:52.914Z,17.10
2018-05-26T05:53:20.653Z,17.30
2018-05-26T05:55:47.633Z,17.30
2018-05-26T05:58:14.625Z,17.50
2018-05-26T06:00:41.606Z,17.40
2018-05-26T06:03:09.374Z,17.60
2018-05-26T06:05:37.121Z,17.60
2018-05-26T06:08:04.101Z,17.60
2018-05-26T06:10:31.883Z,17.80
2018-05-26T06:12:58.877Z,17.80
2018-05-26T06:15:25.857Z,17.90
2018-05-26T06:17:53.606Z,18.00
2018-05-26T06:20:21.359Z,18.00
2018-05-26T06:22:48.341Z,18.00
2018-05-26T06:25:15.317Z,18.10
2018-05-26T06:27:42.310Z,18.30
2018-05-26T06:30:10.088Z,18.40
2018-05-26T06:32:37.074Z,18.30
2018-05-26T06:35:04.054Z,18.40
2018-05-26T06:37:31.046Z,18.50
2018-05-26T06:39:58.029Z,18.60
2018-05-26T06:42:25.022Z,18.70
2018-05-26T06:44:52.011Z,18.80
2018-05-26T06:47:18.998Z,18.80
2018-05-26T06:49:46.751Z,19.00
2018-05-26T06:52:13.733Z,18.90
2018-05-26T06:54:40.710Z,19.00
2018-05-26T06:59:53.382Z,19.10
2018-05-26T07:02:21.134Z,19.40
2018-05-26T07:04:48.112Z,19.30
2018-05-26T07:07:15.094Z,19.40
2018-05-26T07:09:42.086Z,19.40
2018-05-26T07:12:09.053Z,19.50
2018-05-26T07:14:36.051Z,19.50
2018-05-26T07:17:03.033Z,19.60
2018-05-26T07:19:30.790Z,19.60
2018-05-26T07:21:58.543Z,19.70
2018-05-26T07:24:25.551Z,19.70
2018-05-26T07:26:52.518Z,19.70
2018-05-26T07:29:19.506Z,19.80
2018-05-26T07:31:46.506Z,19.80
2018-05-26T07:34:13.511Z,19.90
2018-05-26T07:36:40.490Z,19.90
2018-05-26T07:39:07.479Z,20.10
2018-05-26T07:41:35.229Z,20.20
2018-05-26T07:44:02.226Z,20.10
2018-05-26T07:46:29.202Z,20.20
2018-05-26T07:48:56.186Z,20.20
2018-05-26T07:51:23.937Z,20.30
2018-05-26T07:53:50.948Z,20.30
2018-05-26T07:56:18.275Z,20.30
2018-05-26T07:58:45.229Z,20.30
2018-05-26T08:01:12.197Z,20.40
2018-05-26T08:03:39.186Z,20.40
2018-05-26T08:06:06.934Z,20.60
2018-05-26T08:08:33.934Z,20.60
2018-05-26T08:11:00.910Z,20.70
2018-05-26T08:13:27.888Z,20.70
2018-05-26T08:15:55.634Z,20.70
2018-05-26T08:18:22.627Z,20.70
2018-05-26T08:20:49.609Z,20.80
2018-05-26T08:23:16.582Z,20.90
2018-05-26T08:25:44.338Z,20.90
2018-05-26T08:28:11.318Z,20.90
2018-05-26T08:30:38.306Z,20.90
2018-05-26T08:33:05.281Z,20.90
2018-05-26T08:35:32.273Z,21.00
2018-05-26T08:37:59.245Z,21.00
2018-05-26T08:40:26.231Z,21.10
2018-05-26T08:42:53.973Z,21.20
2018-05-26T08:45:21.065Z,21.20
2018-05-26T08:47:48.790Z,21.50
2018-05-26T08:50:15.784Z,21.50
2018-05-26T08:52:42.766Z,21.70
2018-05-26T08:55:09.754Z,21.90
2018-05-26T08:57:37.497Z,22.10
2018-05-26T09:00:04.494Z,22.10
2018-05-26T09:02:31.474Z,22.30
2018-05-26T09:04:58.459Z,22.40
2018-05-26T09:07:25.450Z,22.50
2018-05-26T09:09:52.478Z,22.60
2018-05-26T09:12:20.236Z,22.90
2018-05-26T09:14:47.218Z,22.90
2018-05-26T09:17:14.214Z,22.90
2018-05-26T09:19:41.204Z,23.00
2018-05-26T09:22:08.190Z,23.00
2018-05-26T09:24:35.938Z,23.20
2018-05-26T09:27:02.940Z,23.10
2018-05-26T09:29:29.914Z,23.20
2018-05-26T09:31:56.924Z,23.10
2018-05-26T09:34:25.892Z,23.10
2018-05-26T09:36:53.653Z,23.40
2018-05-26T09:39:21.398Z,23.40
2018-05-26T09:41:48.395Z,23.40
2018-05-26T09:44:15.376Z,23.60
2018-05-26T09:46:42.369Z,23.70
2018-05-26T09:49:09.344Z,23.70
2018-05-26T09:51:36.330Z,23.70
2018-05-26T09:54:03.358Z,23.70
2018-05-26T09:56:31.258Z,23.70
2018-05-26T09:58:58.949Z,23.70
2018-05-26T10:01:25.938Z,23.70
2018-05-26T10:03:52.922Z,23.90
2018-05-26T10:06:20.677Z,24.30
2018-05-26T10:08:48.433Z,24.40
2018-05-26T10:11:16.192Z,24.50
2018-05-26T10:13:43.169Z,24.50
2018-05-26T10:16:10.174Z,24.60
2018-05-26T10:18:37.169Z,24.40
2018-05-26T10:21:04.810Z,24.40
2018-05-26T10:23:32.573Z,24.60
2018-05-26T10:26:00.326Z,24.50
2018-05-26T10:28:27.318Z,24.50
2018-05-26T10:30:54.307Z,24.50
2018-05-26T10:33:21.296Z,24.60
2018-05-26T10:35:48.274Z,24.80
2018-05-26T10:38:15.291Z,25.00
2018-05-26T10:40:42.278Z,25.10
2018-05-26T10:43:09.270Z,25.00
2018-05-26T10:45:38.850Z,24.80
2018-05-26T10:48:05.838Z,24.80
2018-05-26T10:50:32.853Z,25.00
2018-05-26T10:53:00.619Z,25.20
2018-05-26T10:55:28.370Z,25.30
2018-05-26T10:57:55.358Z,25.30
2018-05-26T11:00:22.357Z,25.30
2018-05-26T11:02:49.361Z,25.30
2018-05-26T11:05:16.358Z,25.30
2018-05-26T11:07:43.343Z,25.40
2018-05-26T11:10:10.357Z,25.40
2018-05-26T11:12:37.374Z,25.40
2018-05-26T11:15:04.373Z,25.30
2018-05-26T11:17:32.134Z,25.40
2018-05-26T11:19:59.885Z,25.30
2018-05-26T11:22:27.651Z,25.20
2018-05-26T11:24:55.416Z,25.20
2018-05-26T11:27:22.395Z,25.20
2018-05-26T11:29:49.433Z,25.20
2018-05-26T11:32:16.357Z,25.10
2018-05-26T11:34:44.114Z,24.90
2018-05-26T11:37:11.863Z,25.20
2018-05-26T11:39:38.850Z,25.20
2018-05-26T11:42:05.834Z,25.40
2018-05-26T11:44:32.839Z,25.50
2018-05-26T11:46:59.811Z,25.50
2018-05-26T11:49:26.801Z,25.50
2018-05-26T11:51:53.785Z,25.50
2018-05-26T11:54:20.773Z,25.40
2018-05-26T11:56:47.762Z,25.40
2018-05-26T11:59:15.520Z,25.40
2018-05-26T12:01:43.278Z,25.50
2018-05-26T12:04:10.266Z,25.50
2018-05-26T12:06:37.254Z,25.60
2018-05-26T12:09:04.244Z,25.70
2018-05-26T12:11:31.230Z,25.60
2018-05-26T12:13:58.360Z,25.50
2018-05-26T12:16:25.358Z,25.60
2018-05-26T12:18:53.129Z,25.80
2018-05-26T12:21:20.886Z,25.80
2018-05-26T12:23:48.639Z,25.70
2018-05-26T12:26:15.631Z,25.60
2018-05-26T12:28:42.634Z,25.70
2018-05-26T12:31:09.618Z,25.80
2018-05-26T12:33:36.828Z,25.90
2018-05-26T12:36:03.808Z,26.00
2018-05-26T12:38:31.549Z,26.20
2018-05-26T12:40:59.313Z,26.10
2018-05-26T12:43:26.311Z,26.10
2018-05-26T12:45:53.298Z,25.90
2018-05-26T12:48:20.283Z,25.80
2018-05-26T12:50:47.303Z,25.70
2018-05-26T12:53:14.254Z,25.90
2018-05-26T12:55:42.013Z,25.90
2018-05-26T12:58:09.753Z,25.80
2018-05-26T13:00:36.746Z,25.80
2018-05-26T13:03:03.727Z,25.80
2018-05-26T13:05:30.722Z,26.10
2018-05-26T13:07:58.471Z,26.30
2018-05-26T13:10:25.466Z,26.20
2018-05-26T13:12:52.451Z,26.30
2018-05-26T13:15:19.446Z,26.30
2018-05-26T13:17:46.434Z,26.30
2018-05-26T13:20:13.428Z,26.50
2018-05-26T13:22:40.404Z,26.50
2018-05-26T13:25:07.413Z,26.50
2018-05-26T13:27:35.163Z,26.50
2018-05-26T13:30:02.142Z,26.50
2018-05-26T13:32:29.130Z,26.50
2018-05-26T13:34:56.116Z,26.60
2018-05-26T13:37:23.875Z,26.50
2018-05-26T13:39:51.632Z,26.50
2018-05-26T13:42:19.382Z,26.30
2018-05-26T13:44:46.363Z,26.30
2018-05-26T13:47:13.359Z,26.10
2018-05-26T13:49:40.329Z,26.00
2018-05-26T13:52:07.325Z,26.10
2018-05-26T13:54:34.422Z,26.10
2018-05-26T13:57:02.085Z,26.30
2018-05-26T13:59:29.074Z,26.20
2018-05-26T14:11:38.302Z,26.20
2018-05-26T14:14:06.659Z,26.60
2018-05-26T14:16:35.059Z,26.80
2018-05-26T14:19:02.719Z,27.00
2018-05-26T14:21:30.150Z,27.10
2018-05-26T14:23:56.133Z,27.10
2018-05-26T14:26:22.122Z,27.20
2018-05-26T14:28:48.079Z,27.30
2018-05-26T14:31:14.037Z,27.20
2018-05-26T14:33:40.737Z,27.20
2018-05-26T15:06:13.008Z,25.30
2018-05-26T15:08:40.446Z,25.30
2018-05-26T15:11:08.649Z,24.10
2018-05-26T15:13:36.208Z,24.00
2018-05-26T15:16:03.652Z,23.70
2018-05-26T15:18:31.108Z,23.60
